createdAt,value
2023-05-25T11:42:47.592Z,35.8
2023-05-25T11:48:41.555Z,36
2023-05-25T11:54:33.160Z,36.7
2023-05-25T12:01:24.139Z,37.4
2023-05-25T12:07:17.668Z,38.2
2023-05-25T12:13:08.544Z,39.1
2023-05-25T12:18:45.625Z,39.7
2023-05-25T12:24:38.483Z,40.3
2023-05-25T12:30:41.095Z,41.2
2023-05-25T12:36:33.505Z,41.9
2023-05-25T12:42:28.030Z,42.5
2023-05-25T12:48:20.285Z,43.1
2023-05-25T12:54:13.151Z,43.6
2023-05-25T13:00:05.046Z,44
2023-05-25T13:05:56.993Z,44.4
2023-05-25T13:11:34.403Z,44.8
2023-05-25T13:17:26.579Z,45.1
2023-05-25T13:23:20.968Z,45.3
2023-05-25T13:29:12.930Z,45.6
2023-05-25T13:35:05.366Z,45.7
2023-05-25T13:40:41.117Z,45.9
2023-05-25T13:46:50.865Z,45.9
2023-05-25T13:52:43.049Z,46.1
2023-05-25T13:58:18.364Z,46.1
2023-05-25T14:04:11.348Z,46.1
2023-05-25T14:10:02.902Z,46.1
2023-05-25T14:16:09.241Z,45.9
2023-05-25T14:21:47.153Z,45.3
2023-05-25T14:27:47.663Z,45.2
2023-05-25T14:33:25.523Z,45.1
2023-05-25T14:39:03.399Z,44.9
2023-05-25T14:44:55.557Z,44.7
2023-05-25T14:51:02.982Z,44.4
2023-05-25T14:56:41.744Z,44.1
2023-05-25T15:02:18.049Z,40.8
2023-05-25T15:07:54.565Z,36.1
2023-05-25T15:13:46.410Z,35.3
2023-05-25T15:19:38.030Z,35.3
2023-05-25T15:25:35.958Z,31.3
2023-05-25T15:31:27.710Z,25
2023-05-25T15:37:38.100Z,22.5
2023-05-25T15:43:13.522Z,22.2
2023-05-25T15:49:06.355Z,21.8
2023-05-25T15:55:00.181Z,21.8
2023-05-25T16:00:50.854Z,21.9
2023-05-25T16:06:44.142Z,21.9
2023-05-25T16:12:39.184Z,22
2023-05-25T16:18:31.052Z,22.1
2023-05-25T16:24:12.342Z,22.1
2023-05-25T16:30:04.701Z,22.1
2023-05-25T16:35:56.232Z,21.9
2023-05-25T16:41:50.169Z,21.9
2023-05-25T16:47:27.604Z,21.8
2023-05-25T16:53:18.900Z,21.8
2023-05-25T16:59:12.740Z,21.6
2023-05-25T17:05:05.967Z,21.6
2023-05-25T17:10:56.927Z,21.5
2023-05-25T17:16:48.752Z,21.4
2023-05-25T17:22:25.466Z,21.3
2023-05-25T17:28:16.303Z,21.3
2023-05-25T17:33:40.759Z,21.3
2023-05-25T17:39:33.430Z,21.4
2023-05-25T17:45:08.355Z,21.4
2023-05-25T17:51:00.859Z,21.4
2023-05-25T17:56:37.278Z,21.4
2023-05-25T18:02:29.736Z,21.4
2023-05-25T18:08:24.006Z,21.5
2023-05-25T18:13:44.713Z,21.3
2023-05-25T18:19:35.719Z,21.3
2023-05-25T18:31:03.399Z,21.1
2023-05-25T18:36:39.520Z,21.1
2023-05-25T18:42:31.309Z,21
2023-05-25T18:48:23.033Z,21
2023-05-25T18:53:58.420Z,21
2023-05-25T18:59:34.367Z,21
2023-05-25T19:04:56.442Z,21
2023-05-25T19:11:01.541Z,21
2023-05-25T19:16:53.914Z,21
2023-05-25T19:22:46.017Z,20.9
2023-05-25T19:28:41.633Z,21
2023-05-25T19:34:18.667Z,21
2023-05-25T19:40:21.245Z,21
2023-05-25T19:46:12.584Z,21
2023-05-25T19:52:05.351Z,21
2023-05-25T19:57:58.195Z,21
2023-05-25T20:03:45.216Z,21
2023-05-25T20:09:21.726Z,21
2023-05-25T20:15:12.720Z,21
2023-05-25T20:21:04.436Z,21
2023-05-25T20:26:56.061Z,21
2023-05-25T20:32:32.568Z,21
2023-05-25T20:38:25.703Z,21
2023-05-25T20:44:16.615Z,21
2023-05-25T20:49:52.955Z,21
2023-05-25T20:54:57.275Z,21
2023-05-25T21:00:49.135Z,21
2023-05-25T21:06:26.557Z,21
2023-05-25T21:12:16.776Z,21
2023-05-25T21:17:37.846Z,21
2023-05-25T21:23:29.764Z,21
2023-05-25T21:28:49.492Z,21.1
2023-05-25T21:34:26.002Z,21
2023-05-25T21:40:01.827Z,21
2023-05-25T21:45:22.895Z,21
2023-05-25T21:50:59.376Z,21.1
2023-05-25T21:56:35.863Z,21
2023-05-25T22:02:13.585Z,21.1
2023-05-25T22:07:50.752Z,21.1
2023-05-25T22:13:27.170Z,21
2023-05-25T22:19:02.368Z,21
2023-05-25T22:24:53.705Z,21.1
2023-05-25T22:30:30.346Z,21.1
2023-05-25T22:36:06.677Z,21.1
2023-05-25T22:41:26.956Z,21.1
2023-05-25T22:47:03.592Z,21.1
2023-05-25T22:52:23.403Z,21.1
2023-05-25T22:57:59.724Z,21.1
2023-05-25T23:03:21.917Z,21.1
2023-05-25T23:08:42.580Z,21.1
2023-05-25T23:14:34.454Z,21.1
2023-05-25T23:19:55.675Z,21.1
2023-05-25T23:25:16.504Z,21.1
2023-05-25T23:36:14.161Z,21.1
2023-05-25T23:41:52.982Z,21.1
2023-05-25T23:47:45.339Z,21.1
2023-05-25T23:53:22.131Z,21.1
2023-05-25T23:59:13.096Z,21.1
